Flight Track Log - Related Links

Times and Time Zones

All times are in EDT time to prevent confusion due to time zone crossing. See the EGF2787 flight status page for this flight to view local times or setup timezone preferences in your user account.


Time Position Orientation Groundspeed Altitude Reporting Facility
EDT Latitude Longitude Course Direction KTS MPH feet Rate Location/Type
Fri 04:10:46 PM 27.5736 -99.4567 22° Northeast 185 213 1,600  Level Houston Center
Fri 04:11:48 PM 27.6336 -99.4142 32° Northeast 219 252 4,300 2,448 Climbing Houston Center
Fri 04:12:00 PM 27.8018 -99.3264 18° North  Level FlightAware Approximate
Fri 04:12:51 PM 27.7006 -99.4317 347° North 235 270 6,700  Level Houston Center
Fri 04:13:00 PM 27.8936 -99.2920 18° North  Level FlightAware Approximate
Fri 04:13:53 PM 27.7722 -99.4517 346° North 252 290 8,900  Level Houston Center
Fri 04:14:00 PM 27.9806 -99.2450 28° Northeast  Level FlightAware Approximate
Fri 04:14:55 PM 27.8503 -99.4689 349° North 267 307 10,900  Level Houston Center
Fri 04:15:00 PM 28.0696 -99.1986 22° Northeast  Level FlightAware Approximate
Fri 04:15:57 PM 27.9364 -99.4867 350° North 290 334 12,500  Level Houston Center
Fri 04:16:00 PM 28.1603 -99.1564 22° Northeast  Level FlightAware Approximate
Fri 04:16:59 PM 28.0286 -99.4889 359° North 325 374 14,000  Level Houston Center
Fri 04:18:01 PM 28.1442 -99.4619 12° North 351 404 15,900 1,645 Climbing Houston Center
Fri 04:19:03 PM 28.2433 -99.4378 12° North 360 414 17,400 1,355 Climbing Houston Center
Fri 04:20:05 PM 28.3428 -99.4008 18° North 371 427 18,700 1,355 Climbing Houston Center
Fri 04:21:07 PM 28.4433 -99.3628 18° North 379 436 20,200 1,008 Climbing Houston Center
Fri 04:22:10 PM 28.5506 -99.3250 17° North 397 457 20,800 672 Climbing Houston Center
Fri 04:23:12 PM 28.6653 -99.2803 19° North 428 493 21,600 1,065 Climbing Houston Center
Fri 04:24:14 PM 28.8044 -99.2289 18° North 436 502 23,000 1,258 Climbing Houston Center
Fri 04:25:16 PM 28.9206 -99.1861 18° North 438 504 24,200 1,161 Climbing Houston Center
Fri 04:26:18 PM 29.0364 -99.1414 19° North 440 506 25,400 1,258 Climbing Houston Center
Fri 04:27:20 PM 29.1636 -99.0939 18° North 435 501 26,800 1,306 Climbing Houston Center
Fri 04:28:22 PM 29.2786 -99.0508 18° North 434 499 28,100 1,258 Climbing Houston Center
Fri 04:29:24 PM 29.4033 -99.0042 18° North 436 502 29,400 1,152 Climbing Houston Center
Fri 04:30:27 PM 29.5186 -98.9600 18° North 435 501 30,500 768 Climbing Houston Center
Fri 04:31:29 PM 29.6458 -98.9122 18° North 443 510 31,000 242 Climbing Houston Center
Fri 04:32:31 PM 29.7742 -98.8639 18° North 473 544 31,000  Level Houston Center
Fri 04:33:33 PM 29.9047 -98.8128 19° North 491 565 31,000  Level Houston Center
Fri 04:34:35 PM 30.0447 -98.7589 18° North 490 564 31,000  Level Houston Center
Fri 04:35:37 PM 30.1750 -98.7078 19° North 491 565 31,000  Level Houston Center
Fri 04:36:39 PM 30.3003 -98.6603 18° North 492 566 31,000  Level Houston Center
Fri 04:37:42 PM 30.4311 -98.6100 18° North 490 564 31,000  Level Houston Center
Fri 04:38:43 PM 30.5628 -98.5597 18° North 491 565 31,000  Level Houston Center
Fri 04:39:46 PM 30.6961 -98.5092 18° North 496 571 31,000  Level Houston Center
Fri 04:40:48 PM 30.8478 -98.4492 19° North 488 562 31,000  Level Houston Center
Fri 04:41:50 PM 30.9783 -98.3992 18° North 486 559 31,000  Level Houston Center
Fri 04:42:27 PM 31.0636 -98.3664 18° North 478 550 31,000  Level Fort Worth Center
Fri 04:43:27 PM 31.1786 -98.3239 18° North 483 556 31,000 -600 Level Fort Worth Center
Fri 04:44:27 PM 31.2933 -98.3300 357° North 429 494 29,800 -1,750 Descending Fort Worth Center
Fri 04:45:27 PM 31.3892 -98.3697 341° North 385 443 27,500 -1,800 Descending Fort Worth Center
Fri 04:46:27 PM 31.4850 -98.3806 354° North 349 402 26,200 -1,300 Descending Fort Worth Center
Fri 04:47:27 PM 31.5775 -98.3156 31° Northeast 355 409 24,900 -1,500 Descending Fort Worth Center
Fri 04:48:27 PM 31.6700 -98.2336 37° Northeast 374 430 23,200 -1,400 Descending Fort Worth Center
Fri 04:49:27 PM 31.7019 -98.1167 72° East 363 418 22,100 -1,100 Descending Fort Worth Center
Fri 04:50:27 PM 31.7381 -97.9972 70° East 369 425 21,000 -1,050 Descending Fort Worth Center
Fri 04:51:27 PM 31.7822 -97.8900 64° Northeast 375 432 20,000 -1,050 Descending Fort Worth Center
Fri 04:52:27 PM 31.8678 -97.9050 352° North 263 303 18,900 -1,050 Descending Fort Worth Center
Fri 04:53:27 PM 31.9469 -97.9372 341° North 277 319 17,900 -900 Descending Fort Worth Center
Fri 04:54:27 PM 32.0283 -97.9647 344° North 290 334 17,100 -650 Descending Fort Worth Center
Fri 04:55:27 PM 32.1100 -97.9333 18° North 295 339 16,600 -1,050 Descending Fort Worth Center
Fri 04:56:27 PM 32.1728 -97.8553 46° Northeast 310 357 15,000 -1,550 Descending Fort Worth Center
Fri 04:57:27 PM 32.2336 -97.7867 44° Northeast 310 357 13,500 -1,650 Descending Fort Worth Center
Fri 04:58:27 PM 32.2922 -97.7158 46° Northeast 298 343 11,700 -1,500 Descending Fort Worth Center
Fri 04:59:27 PM 32.3508 -97.6519 43° Northeast 293 337 10,500 -1,400 Descending Fort Worth Center
Fri 05:00:27 PM 32.4031 -97.5856 47° Northeast 275 316 8,900 -1,500 Descending Fort Worth Center
Fri 05:01:27 PM 32.4556 -97.5242 45° Northeast 270 311 7,500 -1,100 Descending Fort Worth Center
Fri 05:02:27 PM 32.4994 -97.4578 52° Northeast 258 297 6,700 -850 Descending Fort Worth Center
Fri 05:03:27 PM 32.5244 -97.3839 68° East 253 291 5,800 -900 Descending Fort Worth Center
Fri 05:04:27 PM 32.5536 -97.3025 67° East 253 291 4,900 -450 Descending Fort Worth Center
Fri 05:05:27 PM 32.5578 -97.2139 87° East 253 291 4,900 -100 Level Fort Worth Center
Fri 05:06:27 PM 32.5575 -97.1397 90° East 240 276 4,700 -500 Descending Fort Worth Center
Fri 05:07:27 PM 32.5719 -97.0831 73° East 204 235 3,900 -850 Descending Fort Worth Center
Fri 05:08:27 PM 32.6178 -97.0608 22° Northeast 156 180 3,000 -557 Descending Fort Worth Center
Fri 05:09:04 PM 32.6500 -97.0500 16° North 169 194 3,000  Level Dallas / Fort Worth TRACON

Login

Don't have an account? Register now (free) for customized features, flight alerts, and more!